Time;durP1;ratioP1;P1;durP2;ratioP2;P2;SDS_P1;SDS_P2;PMS_P1;PMS_P2;Temp;Humidity;BMP_temperature;BMP_pressure;BME280_temperature;BME280_humidity;BME280_pressure;Samples;Min_cycle;Max_cycle;Signal;HPM_P1;HPM_P2
2022/05/06 00:05:06;;;;;;;16.05;10.05;;;;;;;14.58;88.23;100851.32;709647;1180;116205;-74
2022/05/06 00:20:10;;;;;;;15.40;10.90;;;;;;;14.67;87.83;100842.55;709645;1180;114806;-74
2022/05/06 00:35:13;;;;;;;14.93;9.73;;;;;;;14.54;88.21;100834.94;709503;1180;116265;-74
2022/05/06 00:50:20;;;;;;;12.30;8.80;;;;;;;14.24;90.04;100807.89;709338;1180;116201;-73
2022/05/06 01:05:24;;;;;;;14.25;10.20;;;;;;;14.30;90.39;100811.73;709597;1180;116292;-73
2022/05/06 01:20:28;;;;;;;15.90;9.35;;;;;;;14.24;90.83;100825.51;709786;1180;116010;-74
2022/05/06 01:35:53;;;;;;;15.75;10.10;;;;;;;14.17;92.63;100843.73;709665;1180;116134;-74
2022/05/06 01:50:58;;;;;;;14.65;9.45;;;;;;;14.13;92.31;100851.13;709638;1180;115804;-74
2022/05/06 02:06:02;;;;;;;14.70;9.90;;;;;;;14.13;93.24;100861.68;709329;1180;115888;-74
2022/05/06 02:21:06;;;;;;;16.40;11.00;;;;;;;14.18;93.15;100869.15;709406;1184;115952;-74
2022/05/06 02:36:09;;;;;;;18.25;11.10;;;;;;;14.03;94.40;100868.79;709514;1180;115872;-75
2022/05/06 02:51:13;;;;;;;21.70;13.70;;;;;;;14.03;95.56;100878.49;709278;1182;116286;-75
2022/05/06 03:06:17;;;;;;;25.87;15.50;;;;;;;13.83;96.55;100890.90;709491;1183;115219;-75
2022/05/06 03:21:20;;;;;;;26.80;14.05;;;;;;;13.69;96.89;100916.73;709604;1182;116193;-79
2022/05/06 03:36:24;;;;;;;32.77;18.07;;;;;;;13.72;96.60;100936.72;709510;1181;117147;-75
2022/05/06 03:51:31;;;;;;;20.10;12.70;;;;;;;13.64;96.10;100946.14;713264;1184;114644;-77
2022/05/06 04:06:35;;;;;;;13.75;6.25;;;;;;;13.27;91.70;100982.84;710123;1184;114641;-76
2022/05/06 04:37:05;;;;;;;12.30;6.50;;;;;;;13.06;87.04;100982.94;709488;1182;114430;-77
2022/05/06 04:52:09;;;;;;;14.70;8.50;;;;;;;13.17;87.16;101010.97;709507;1184;114475;-77
2022/05/06 05:07:13;;;;;;;12.80;6.75;;;;;;;13.38;85.17;101014.40;709696;1182;114820;-77
2022/05/06 05:22:18;;;;;;;15.58;7.10;;;;;;;13.48;84.10;101023.13;709572;1184;114591;-75
2022/05/06 05:37:22;;;;;;;17.65;7.70;;;;;;;13.39;83.17;101033.66;709821;1181;116066;-78
2022/05/06 05:52:26;;;;;;;15.80;6.25;;;;;;;13.61;82.39;101022.88;709568;1180;115430;-79
2022/05/06 06:07:30;;;;;;;13.40;7.90;;;;;;;14.00;81.07;101024.69;709473;1180;116005;-78
2022/05/06 06:22:33;;;;;;;12.70;6.97;;;;;;;14.30;79.85;101038.69;710314;1180;115159;-77
2022/05/06 06:37:38;;;;;;;13.10;7.20;;;;;;;15.09;78.28;101050.71;711509;1182;115825;-79
2022/05/06 06:52:41;;;;;;;12.00;7.10;;;;;;;15.57;76.98;101037.38;713112;1183;115015;-77
2022/05/06 07:23:28;;;;;;;24.35;12.80;;;;;;;16.98;75.42;101063.15;709896;1182;115314;-78
2022/05/06 07:38:32;;;;;;;41.23;19.37;;;;;;;16.18;75.28;101061.43;710184;1184;115355;-76
2022/05/06 07:53:36;;;;;;;17.50;10.90;;;;;;;16.87;75.64;101050.98;709769;1182;116538;-76
2022/05/06 08:08:39;;;;;;;19.70;11.90;;;;;;;17.34;74.64;101061.15;709841;1182;115343;-74
2022/05/06 08:23:43;;;;;;;18.90;11.75;;;;;;;17.39;74.01;101072.08;709958;1182;115508;-74
2022/05/06 08:38:48;;;;;;;16.20;10.05;;;;;;;17.18;70.85;101085.75;710335;1183;116305;-75
2022/05/06 08:53:54;;;;;;;17.63;10.23;;;;;;;18.44;70.54;101090.16;710330;1180;116173;-74
2022/05/06 09:09:00;;;;;;;17.28;10.15;;;;;;;20.02;68.18;101074.41;710047;1180;115869;-75
2022/05/06 09:24:19;;;;;;;13.77;7.70;;;;;;;20.57;65.55;101083.91;712270;1184;115484;-72
2022/05/06 09:39:23;;;;;;;;;;;;;;;20.98;60.65;101081.86;710157;1182;114737;-73
2022/05/06 09:54:33;;;;;;;8.60;4.00;;;;;;;22.00;57.92;101081.00;709893;1184;101544;-74
2022/05/06 10:09:49;;;;;;;7.90;4.30;;;;;;;22.80;56.41;101087.98;710185;1182;115549;-76
2022/05/06 10:24:53;;;;;;;10.75;4.85;;;;;;;23.14;54.36;101086.34;710913;1184;115184;-74
2022/05/06 10:39:58;;;;;;;9.50;5.40;;;;;;;23.13;54.04;101076.63;710139;1183;115360;-74
2022/05/06 10:55:03;;;;;;;7.80;4.50;;;;;;;23.34;54.49;101073.84;712512;1180;115165;-74
2022/05/06 11:10:11;;;;;;;5.75;3.90;;;;;;;24.73;52.52;101058.10;709406;1183;116008;-74
2022/05/06 11:25:15;;;;;;;8.23;4.00;;;;;;;24.24;50.20;101059.38;709884;1180;115706;-75
2022/05/06 11:55:32;;;;;;;8.80;4.30;;;;;;;24.47;49.99;101040.18;709356;1181;114990;-77
2022/05/06 12:10:38;;;;;;;4.80;4.00;;;;;;;24.56;50.14;101038.92;709670;1182;115706;-80
2022/05/06 12:25:54;;;;;;;8.90;4.80;;;;;;;24.18;50.11;101030.74;709439;1180;114809;-80
2022/05/06 12:40:58;;;;;;;7.43;2.90;;;;;;;24.90;49.49;101022.73;710055;1180;115487;-82
2022/05/06 12:56:03;;;;;;;5.55;2.50;;;;;;;24.51;47.80;101021.82;710033;1180;114583;-81
2022/05/06 13:11:07;;;;;;;5.03;2.37;;;;;;;25.56;45.32;101005.49;710392;1180;115251;-79
2022/05/06 13:26:11;;;;;;;7.50;2.00;;;;;;;26.50;43.27;101004.67;709583;1184;115247;-75
2022/05/06 13:41:16;;;;;;;3.90;2.30;;;;;;;26.82;43.85;101014.49;710096;1180;115207;-76
2022/05/06 14:11:47;;;;;;;3.67;2.30;;;;;;;26.86;44.58;100986.88;710171;1183;115985;-79
2022/05/06 14:26:51;;;;;;;2.75;1.90;;;;;;;34.26;41.96;100973.00;709579;1184;114390;-77
2022/05/06 14:41:55;;;;;;;4.90;2.60;;;;;;;31.30;39.00;100963.46;709630;1181;115550;-78
2022/05/06 14:56:59;;;;;;;4.40;2.70;;;;;;;28.25;43.30;100957.17;709516;1180;114387;-77
2022/05/06 15:12:03;;;;;;;10.25;3.45;;;;;;;27.28;43.65;100956.49;709243;1184;115286;-76
2022/05/06 15:27:08;;;;;;;4.80;2.95;;;;;;;25.33;44.37;100944.27;709501;1181;115367;-78
2022/05/06 15:42:12;;;;;;;4.40;3.10;;;;;;;24.15;45.57;100927.45;709136;1180;117053;-75
2022/05/06 15:57:16;;;;;;;3.47;2.53;;;;;;;24.32;46.87;100929.67;709326;1180;115762;-74
2022/05/06 16:12:20;;;;;;;5.90;3.27;;;;;;;23.50;46.92;100929.95;709273;1180;115504;-75
2022/05/06 16:27:24;;;;;;;8.03;4.17;;;;;;;22.89;47.74;100927.13;709346;1184;114429;-74
2022/05/06 16:42:29;;;;;;;18.10;7.40;;;;;;;22.77;48.03;100934.91;709823;1180;115157;-74
2022/05/06 16:57:33;;;;;;;8.30;5.00;;;;;;;22.30;48.65;100936.51;709895;1180;115805;-75
2022/05/06 17:12:38;;;;;;;8.50;7.17;;;;;;;22.04;49.80;100919.31;709274;1181;114995;-74
2022/05/06 17:27:43;;;;;;;6.70;4.00;;;;;;;21.67;50.63;100926.66;709283;1182;115841;-71
2022/05/06 17:42:46;;;;;;;33.37;12.67;;;;;;;21.06;50.56;100943.91;709276;1180;115978;-73
2022/05/06 17:57:50;;;;;;;34.10;14.63;;;;;;;20.68;51.53;100952.05;709603;1180;115546;-75
2022/05/06 18:12:56;;;;;;;23.00;13.15;;;;;;;19.97;52.74;100962.28;709561;1180;115624;-75
2022/05/06 18:28:02;;;;;;;208.00;65.60;;;;;;;18.71;54.62;100976.50;709808;1183;116161;-74
2022/05/06 18:43:06;;;;;;;50.77;38.63;;;;;;;17.95;56.11;100997.27;709838;1180;115936;-74
2022/05/06 18:58:12;;;;;;;132.38;55.95;;;;;;;17.30;58.01;100998.80;709884;1182;115494;-74
2022/05/06 19:13:18;;;;;;;77.13;34.87;;;;;;;16.94;58.56;100999.84;709587;1182;115271;-73
2022/05/06 19:28:22;;;;;;;81.05;43.05;;;;;;;16.61;59.86;101001.48;709426;1184;115611;-73
2022/05/06 19:43:26;;;;;;;80.30;33.60;;;;;;;16.34;60.84;101007.77;709272;1182;115773;-73
2022/05/06 19:58:33;;;;;;;64.85;22.00;;;;;;;16.00;61.53;101005.90;709534;1184;115805;-73
2022/05/06 20:13:38;;;;;;;124.13;47.80;;;;;;;15.96;63.17;101010.66;709346;1184;116210;-74
2022/05/06 20:28:42;;;;;;;27.25;12.80;;;;;;;15.57;63.66;101003.84;709691;1182;114984;-73
2022/05/06 20:43:45;;;;;;;40.65;16.45;;;;;;;15.57;64.65;101010.92;709349;1183;114667;-78
2022/05/06 21:14:12;;;;;;;32.43;16.78;;;;;;;14.80;66.80;101003.30;710371;1180;114612;-78
2022/05/06 21:29:15;;;;;;;20.50;10.43;;;;;;;14.18;66.99;101008.16;711882;1180;115503;-74
2022/05/06 21:44:19;;;;;;;18.80;11.80;;;;;;;13.99;68.81;101012.49;710241;1180;115802;-74
2022/05/06 21:59:23;;;;;;;27.40;14.70;;;;;;;13.53;69.86;101006.09;709960;1180;115616;-73
2022/05/06 22:14:26;;;;;;;26.25;12.65;;;;;;;13.02;70.94;101006.07;709976;1183;115702;-73
2022/05/06 22:29:30;;;;;;;46.50;17.80;;;;;;;12.88;71.58;101009.06;709428;1180;116209;-73
2022/05/06 22:59:56;;;;;;;45.70;19.37;;;;;;;12.33;74.84;100999.66;709473;1180;116298;-73
2022/05/06 23:14:59;;;;;;;749.55;178.55;;;;;;;11.97;76.23;100973.68;709365;1180;114809;-73
2022/05/06 23:30:04;;;;;;;320.10;73.55;;;;;;;11.89;76.57;100962.09;709544;1182;115752;-73
2022/05/06 23:45:08;;;;;;;49.80;22.65;;;;;;;11.29;76.67;100966.01;709557;1180;115764;-73
